createdAt,value
2019-01-10T00:01:53.471Z,25.20
2019-01-10T00:04:23.923Z,25.43
2019-01-10T00:06:54.325Z,26.60
2019-01-10T00:09:24.863Z,26.57
2019-01-10T00:11:55.422Z,25.27
2019-01-10T00:14:25.946Z,25.30
2019-01-10T00:16:56.368Z,26.10
2019-01-10T00:19:26.749Z,26.43
2019-01-10T00:21:57.074Z,27.00
2019-01-10T00:24:27.333Z,26.30
2019-01-10T00:26:57.748Z,25.83
2019-01-10T00:29:28.173Z,25.40
2019-01-10T00:31:58.595Z,26.83
2019-01-10T00:34:29.024Z,26.13
2019-01-10T00:36:59.694Z,25.87
2019-01-10T00:39:30.134Z,25.87
2019-01-10T00:42:00.490Z,26.13
2019-01-10T00:44:30.982Z,26.07
2019-01-10T00:47:01.612Z,26.57
2019-01-10T00:49:32.040Z,26.47
2019-01-10T00:52:02.578Z,25.63
2019-01-10T00:54:33.096Z,25.83
2019-01-10T00:57:03.544Z,26.90
2019-01-10T00:59:33.880Z,27.50
2019-01-10T01:02:04.314Z,25.90
2019-01-10T01:04:34.808Z,26.23
2019-01-10T01:07:05.552Z,25.17
2019-01-10T01:09:55.085Z,24.53
2019-01-10T01:12:25.512Z,26.00
2019-01-10T01:14:55.861Z,25.10
2019-01-10T01:17:26.202Z,24.93
2019-01-10T01:19:56.493Z,25.47
2019-01-10T01:22:26.819Z,25.30
2019-01-10T01:24:57.205Z,25.40
2019-01-10T01:27:27.601Z,24.70
2019-01-10T01:29:58.050Z,24.10
2019-01-10T01:32:28.369Z,25.03
2019-01-10T01:34:59.694Z,24.37
2019-01-10T01:37:29.943Z,24.83
2019-01-10T01:40:00.309Z,24.97
2019-01-10T01:42:30.624Z,25.67
2019-01-10T01:45:01.077Z,25.93
2019-01-10T01:47:31.587Z,26.23
2019-01-10T01:50:01.870Z,25.10
2019-01-10T01:52:32.207Z,24.07
2019-01-10T01:55:02.554Z,24.63
2019-01-10T01:57:32.993Z,24.57
2019-01-10T02:00:03.379Z,25.37
2019-01-10T02:02:33.740Z,27.00
2019-01-10T02:05:04.142Z,25.80
2019-01-10T02:07:34.525Z,25.33
2019-01-10T02:10:05.678Z,25.73
2019-01-10T02:12:36.102Z,25.83
2019-01-10T02:15:06.553Z,26.23
2019-01-10T02:17:37.014Z,25.93
2019-01-10T02:20:07.986Z,25.93
2019-01-10T02:22:38.644Z,26.20
2019-01-10T02:25:10.068Z,26.13
2019-01-10T02:27:41.410Z,25.63
2019-01-10T02:30:14.906Z,25.60
2019-01-10T02:32:45.400Z,25.83
2019-01-10T02:35:15.687Z,25.00
2019-01-10T02:37:45.977Z,25.13
2019-01-10T02:40:16.207Z,26.17
2019-01-10T02:42:46.679Z,26.07
2019-01-10T02:45:18.218Z,25.87
2019-01-10T02:47:48.422Z,25.30
2019-01-10T02:50:22.947Z,25.47
2019-01-10T02:52:53.281Z,25.27
2019-01-10T02:55:23.595Z,26.27
2019-01-10T02:57:53.957Z,26.20
2019-01-10T03:00:25.607Z,25.43
2019-01-10T03:02:56.036Z,26.30
2019-01-10T03:05:26.418Z,25.87
2019-01-10T03:07:56.661Z,25.53
2019-01-10T03:10:27.186Z,25.97
2019-01-10T03:12:57.433Z,25.37
2019-01-10T03:15:27.819Z,27.27
2019-01-10T03:17:58.222Z,25.83
2019-01-10T03:20:28.567Z,25.40
2019-01-10T03:22:58.842Z,26.03
2019-01-10T03:25:29.241Z,25.57
2019-01-10T03:27:59.541Z,24.93
2019-01-10T03:30:29.780Z,25.90
2019-01-10T03:33:00.173Z,24.97
2019-01-10T03:35:30.448Z,25.30
2019-01-10T03:38:00.689Z,25.50
2019-01-10T03:40:30.911Z,23.50
2019-01-10T03:43:01.233Z,25.10
2019-01-10T03:45:31.463Z,24.57
2019-01-10T03:48:01.884Z,24.47
2019-01-10T03:50:33.293Z,24.70
2019-01-10T03:53:03.668Z,24.33
2019-01-10T03:55:33.860Z,25.63
2019-01-10T03:58:04.137Z,25.23
2019-01-10T04:00:34.393Z,24.80
2019-01-10T04:03:04.691Z,25.93
2019-01-10T04:05:34.928Z,25.60
2019-01-10T04:08:05.236Z,23.73
2019-01-10T04:10:35.637Z,24.63
2019-01-10T04:13:05.977Z,24.97
2019-01-10T04:15:36.337Z,24.00
2019-01-10T04:18:06.707Z,25.27
2019-01-10T04:20:36.950Z,24.77
2019-01-10T04:23:07.282Z,24.87
2019-01-10T04:25:37.618Z,23.80
2019-01-10T04:28:07.938Z,24.47
2019-01-10T04:30:38.199Z,24.13
2019-01-10T04:33:08.556Z,25.37
2019-01-10T04:35:38.843Z,24.50
2019-01-10T04:38:09.094Z,24.03
2019-01-10T04:40:39.340Z,23.80
2019-01-10T04:43:09.693Z,24.73
2019-01-10T04:45:39.921Z,23.70
2019-01-10T04:48:10.131Z,23.17
2019-01-10T04:50:40.336Z,24.13
2019-01-10T04:53:10.655Z,23.47
2019-01-10T04:55:40.883Z,22.97
2019-01-10T04:58:11.237Z,24.00
2019-01-10T05:00:41.511Z,23.80
2019-01-10T05:03:11.866Z,24.73
2019-01-10T05:05:42.159Z,23.10
2019-01-10T05:08:12.507Z,23.90
2019-01-10T05:10:42.853Z,23.77
2019-01-10T05:13:13.126Z,23.63
2019-01-10T05:15:43.414Z,24.50
2019-01-10T05:18:13.846Z,25.07
2019-01-10T05:20:44.150Z,23.93
2019-01-10T05:23:14.396Z,23.77
2019-01-10T05:25:44.657Z,22.97
2019-01-10T05:28:14.973Z,23.17
2019-01-10T05:30:45.373Z,23.07
2019-01-10T05:33:15.832Z,23.10
2019-01-10T05:35:46.226Z,22.30
2019-01-10T05:38:16.579Z,22.87
2019-01-10T05:40:46.995Z,22.40
2019-01-10T05:43:17.343Z,23.13
2019-01-10T05:45:47.708Z,23.07
2019-01-10T05:48:18.122Z,22.73
2019-01-10T05:50:48.541Z,21.70
2019-01-10T05:53:18.942Z,22.13
2019-01-10T05:55:49.436Z,21.37
2019-01-10T05:58:20.845Z,21.03
2019-01-10T06:00:51.256Z,20.63
2019-01-10T06:03:24.382Z,20.17
2019-01-10T06:05:54.710Z,22.53
2019-01-10T06:08:25.164Z,21.53
2019-01-10T06:10:55.549Z,21.83
2019-01-10T06:13:25.870Z,21.67
2019-01-10T06:15:56.160Z,22.40
2019-01-10T06:18:26.548Z,21.53
2019-01-10T06:20:56.868Z,21.50
2019-01-10T06:23:27.199Z,22.57
2019-01-10T06:25:57.570Z,20.53
2019-01-10T06:28:27.976Z,22.53
2019-01-10T06:30:58.403Z,22.83
2019-01-10T06:33:28.698Z,22.17
2019-01-10T06:35:59.040Z,21.57
2019-01-10T06:38:29.367Z,21.75
2019-01-10T06:40:59.629Z,22.07
2019-01-10T06:43:29.951Z,23.80
2019-01-10T06:46:00.335Z,22.77
2019-01-10T06:48:30.884Z,20.57
2019-01-10T06:51:01.246Z,22.80
2019-01-10T06:53:31.540Z,22.57
2019-01-10T06:56:01.973Z,22.07
2019-01-10T06:58:32.364Z,19.50
2019-01-10T07:01:02.679Z,22.87
2019-01-10T07:03:33.065Z,22.30
2019-01-10T07:06:03.242Z,22.30
2019-01-10T07:08:33.527Z,20.53
2019-01-10T07:11:04.129Z,21.97
2019-01-10T07:13:34.834Z,22.37
2019-01-10T07:16:06.361Z,21.73
2019-01-10T07:18:38.434Z,22.52
2019-01-10T07:21:16.594Z,23.87
2019-01-10T07:23:47.924Z,23.38
2019-01-10T07:26:18.484Z,24.40
2019-01-10T07:28:49.431Z,26.12
2019-01-10T07:31:29.807Z,23.87
2019-01-10T07:34:01.275Z,24.80
2019-01-10T07:36:33.310Z,22.93
2019-01-10T07:39:08.481Z,24.37
2019-01-10T07:41:41.368Z,26.12
2019-01-10T07:44:11.794Z,25.50
2019-01-10T07:46:47.259Z,24.23
2019-01-10T07:49:21.596Z,24.75
2019-01-10T07:51:52.111Z,26.25
2019-01-10T07:54:22.784Z,24.82
2019-01-10T07:56:53.234Z,24.18
2019-01-10T07:59:23.508Z,21.47
2019-01-10T08:01:53.935Z,23.67
2019-01-10T08:04:24.572Z,23.97
2019-01-10T08:06:54.964Z,24.27
2019-01-10T08:09:25.370Z,22.25
2019-01-10T08:12:00.522Z,22.17
2019-01-10T08:14:28.011Z,22.10
2019-01-10T08:16:58.340Z,23.40
2019-01-10T08:19:30.179Z,21.12
2019-01-10T08:22:05.297Z,21.80
2019-01-10T08:24:42.570Z,21.42
2019-01-10T08:27:13.815Z,21.05
2019-01-10T08:30:06.091Z,21.77
2019-01-10T08:32:36.898Z,20.97
2019-01-10T08:35:07.764Z,23.12
2019-01-10T08:37:40.762Z,20.40
2019-01-10T08:40:11.770Z,22.02
2019-01-10T08:45:21.771Z,19.57
2019-01-10T08:47:50.577Z,19.00
2019-01-10T08:53:13.731Z,19.17
2019-01-10T09:00:47.690Z,18.82
2019-01-10T09:03:18.130Z,20.23
2019-01-10T09:05:49.987Z,20.12
2019-01-10T09:08:20.646Z,17.67
2019-01-10T09:10:56.107Z,19.73
2019-01-10T09:13:31.823Z,20.75
2019-01-10T09:16:03.502Z,21.65
2019-01-10T09:18:33.985Z,22.60
2019-01-10T09:21:04.812Z,19.83
2019-01-10T09:23:38.334Z,21.48
2019-01-10T09:26:37.575Z,20.02
2019-01-10T09:29:35.912Z,22.00
2019-01-10T09:32:08.055Z,18.10
2019-01-10T09:34:41.363Z,21.33
2019-01-10T09:37:13.434Z,19.30
2019-01-10T09:39:43.907Z,20.20
2019-01-10T09:42:14.595Z,20.32
2019-01-10T09:44:52.135Z,20.30
2019-01-10T09:47:25.665Z,18.90
2019-01-10T09:49:56.356Z,19.27
2019-01-10T09:52:57.583Z,19.05
2019-01-10T09:55:34.708Z,21.82
2019-01-10T09:58:07.907Z,20.53
2019-01-10T10:00:46.059Z,19.40
2019-01-10T10:03:19.038Z,21.43
2019-01-10T10:05:51.451Z,20.80
2019-01-10T10:11:19.880Z,18.75
2019-01-10T10:13:52.513Z,20.45
2019-01-10T10:16:23.510Z,21.07
2019-01-10T10:18:54.888Z,22.32
2019-01-10T10:21:29.610Z,21.75
2019-01-10T10:24:00.214Z,19.70
2019-01-10T10:26:31.612Z,20.75
2019-01-10T10:29:02.437Z,20.50
2019-01-10T10:31:36.275Z,20.62
2019-01-10T10:34:07.685Z,18.92
2019-01-10T10:36:38.290Z,19.48
2019-01-10T10:39:12.229Z,19.65
2019-01-10T10:44:19.641Z,27.00
2019-01-10T10:46:49.620Z,25.60
2019-01-10T10:49:19.388Z,25.20
2019-01-10T10:51:49.199Z,26.03
2019-01-10T10:54:18.955Z,25.67
2019-01-10T10:56:51.893Z,19.73
2019-01-10T10:59:28.717Z,23.87
2019-01-10T11:02:02.264Z,23.38
2019-01-10T11:04:33.402Z,24.77
2019-01-10T11:09:38.424Z,24.87
2019-01-10T11:12:09.132Z,23.60
2019-01-10T11:14:46.301Z,21.97
2019-01-10T11:17:16.241Z,20.97
2019-01-10T11:19:46.985Z,23.30
2019-01-10T11:22:23.687Z,22.20
2019-01-10T11:24:57.819Z,23.83
2019-01-10T11:27:27.711Z,22.23
2019-01-10T11:29:58.209Z,19.23
2019-01-10T11:32:42.456Z,23.27
2019-01-10T11:35:13.171Z,22.97
2019-01-10T11:37:42.883Z,24.53
2019-01-10T11:40:15.766Z,22.40
2019-01-10T11:42:46.007Z,23.63
2019-01-10T11:45:21.087Z,21.80
2019-01-10T11:47:52.027Z,23.97
2019-01-10T11:50:22.473Z,23.20
2019-01-10T11:52:53.568Z,23.97
2019-01-10T11:55:24.733Z,24.17
2019-01-10T11:58:01.478Z,20.50
2019-01-10T12:00:36.880Z,23.77
2019-01-10T12:03:10.658Z,21.87
2019-01-10T12:05:47.615Z,26.87
2019-01-10T12:08:13.644Z,23.57
2019-01-10T12:10:44.219Z,23.63
2019-01-10T12:13:15.007Z,23.87
2019-01-10T12:15:45.567Z,27.82
2019-01-10T12:18:19.473Z,24.33
2019-01-10T12:20:49.970Z,22.90
2019-01-10T12:23:20.713Z,22.77
2019-01-10T12:25:55.287Z,25.00
2019-01-10T12:28:26.608Z,20.10
2019-01-10T12:30:58.840Z,22.03
2019-01-10T12:33:29.277Z,20.90
2019-01-10T12:35:59.851Z,21.67
2019-01-10T12:38:32.217Z,20.57
2019-01-10T12:41:02.867Z,22.10
2019-01-10T12:43:33.127Z,21.83
2019-01-10T12:46:05.818Z,21.90
2019-01-10T12:48:35.500Z,21.27
2019-01-10T12:51:06.296Z,21.80
2019-01-10T12:53:37.047Z,22.10
2019-01-10T12:56:07.785Z,19.73
2019-01-10T12:58:36.601Z,21.07
2019-01-10T13:01:26.553Z,19.40
